JWY YSSY-YSBK
Flight info
| Callsign | JWY |
|---|---|
| Flight time | 0h -19m |
| Altitude | 3000 |
| Route | YSSY/16L MRBR SYHD HBB RYB CWST |
| Aircraft | PA24/L-SDGRY/S |
Departure
| Time | 2026-05-09 05:50 |
|---|---|
| Airport | Sydney Kingsford Smith International Airport (YSSY) |
Arrival
| Time | 2026-05-09 05:31 |
|---|---|
| Airport | Sydney Bankstown Airport (YSBK) |
| Time | Latitude | Longitude | Altitude | Speed | Heading |
|---|---|---|---|---|---|
| 2026-05-09 05:30 | -33.93438 | 151.18909 | 25 ft | 0 kts | 182° |
| 2026-05-09 05:40 | -33.93439 | 151.18909 | 25 ft | 1 kts | 185° |
| 2026-05-09 05:40 | -33.93483 | 151.18858 | 25 ft | 15 kts | 199° |
| 2026-05-09 05:40 | -33.93599 | 151.18815 | 24 ft | 19 kts | 246° |
| 2026-05-09 05:41 | -33.93639 | 151.18626 | 25 ft | 27 kts | 255° |
| 2026-05-09 05:41 | -33.93692 | 151.18388 | 25 ft | 28 kts | 254° |
| 2026-05-09 05:41 | -33.93743 | 151.18179 | 25 ft | 26 kts | 258° |
| 2026-05-09 05:41 | -33.93798 | 151.17955 | 25 ft | 29 kts | 256° |
| 2026-05-09 05:42 | -33.93870 | 151.17773 | 24 ft | 21 kts | 183° |
| 2026-05-09 05:42 | -33.94022 | 151.17810 | 23 ft | 24 kts | 166° |
| 2026-05-09 05:42 | -33.94186 | 151.17853 | 24 ft | 25 kts | 168° |
| 2026-05-09 05:42 | -33.94303 | 151.17883 | 25 ft | 26 kts | 167° |
| 2026-05-09 05:43 | -33.94476 | 151.17891 | 25 ft | 24 kts | 206° |
| 2026-05-09 05:43 | -33.94625 | 151.17909 | 25 ft | 22 kts | 168° |
| 2026-05-09 05:43 | -33.94845 | 151.17966 | 25 ft | 26 kts | 168° |
| 2026-05-09 05:43 | -33.94969 | 151.17998 | 25 ft | 28 kts | 168° |
| 2026-05-09 05:44 | -33.95094 | 151.18136 | 25 ft | 14 kts | 79° |
| 2026-05-09 05:44 | -33.95079 | 151.18218 | 25 ft | 16 kts | 79° |
| 2026-05-09 05:44 | -33.95056 | 151.18344 | 25 ft | 15 kts | 78° |
| 2026-05-09 05:44 | -33.95035 | 151.18466 | 25 ft | 15 kts | 79° |
| 2026-05-09 05:45 | -33.95021 | 151.18544 | 25 ft | 5 kts | 76° |
| 2026-05-09 05:45 | -33.95012 | 151.18591 | 25 ft | 9 kts | 79° |
| 2026-05-09 05:45 | -33.94994 | 151.18693 | 24 ft | 14 kts | 79° |
| 2026-05-09 05:45 | -33.94989 | 151.18722 | 23 ft | 0 kts | 78° |
| 2026-05-09 05:47 | -33.94988 | 151.18723 | 23 ft | 1 kts | 78° |
| 2026-05-09 05:47 | -33.95006 | 151.18835 | 19 ft | 20 kts | 145° |
| 2026-05-09 05:48 | -33.95065 | 151.18855 | 19 ft | 0 kts | 167° |
| 2026-05-09 05:49 | -33.95089 | 151.18861 | 19 ft | 22 kts | 166° |
| 2026-05-09 05:49 | -33.95441 | 151.18946 | 58 ft | 73 kts | 166° |
| 2026-05-09 05:49 | -33.96004 | 151.19089 | 233 ft | 90 kts | 166° |
| 2026-05-09 05:49 | -33.96683 | 151.19262 | 383 ft | 109 kts | 168° |
| 2026-05-09 05:50 | -33.97443 | 151.19458 | 603 ft | 115 kts | 159° |
| 2026-05-09 05:50 | -33.97971 | 151.20178 | 773 ft | 117 kts | 119° |
| 2026-05-09 05:50 | -33.98356 | 151.21053 | 981 ft | 120 kts | 121° |
| 2026-05-09 05:50 | -33.98748 | 151.21935 | 1248 ft | 119 kts | 121° |
| 2026-05-09 05:51 | -33.99149 | 151.22826 | 1455 ft | 123 kts | 122° |
| 2026-05-09 05:51 | -33.99566 | 151.23744 | 1640 ft | 128 kts | 122° |
| 2026-05-09 05:51 | -33.99714 | 151.24742 | 2082 ft | 120 kts | 83° |
| 2026-05-09 05:51 | -33.99259 | 151.25594 | 2394 ft | 128 kts | 42° |
| 2026-05-09 05:52 | -33.98442 | 151.26107 | 2543 ft | 136 kts | 19° |
| 2026-05-09 05:52 | -33.97547 | 151.26453 | 2751 ft | 135 kts | 14° |
| 2026-05-09 05:52 | -33.96656 | 151.26736 | 2936 ft | 134 kts | 12° |
| 2026-05-09 05:52 | -33.95762 | 151.27027 | 3159 ft | 131 kts | 14° |
| 2026-05-09 05:53 | -33.94898 | 151.27329 | 3399 ft | 129 kts | 13° |
| 2026-05-09 05:53 | -33.94038 | 151.27612 | 3622 ft | 127 kts | 11° |
| 2026-05-09 05:53 | -33.93174 | 151.27905 | 3767 ft | 131 kts | 14° |
| 2026-05-09 05:53 | -33.92312 | 151.28182 | 3978 ft | 128 kts | 11° |
| 2026-05-09 05:54 | -33.91398 | 151.28386 | 3989 ft | 139 kts | 5° |
| 2026-05-09 05:54 | -33.90421 | 151.28516 | 4018 ft | 144 kts | 2° |
| 2026-05-09 05:54 | -33.89393 | 151.28563 | 4009 ft | 150 kts | 358° |
| 2026-05-09 05:54 | -33.88348 | 151.28550 | 4046 ft | 149 kts | 351° |